sensor_id;sensor_type;location;lat;lon;timestamp;P1;durP1;ratioP1;P2;durP2;ratioP2
21727;SDS011;11026;50.560;17.852;2024-02-26T00:02:08;30.40;;;17.38;;
21727;SDS011;11026;50.560;17.852;2024-02-26T00:04:35;32.63;;;17.73;;
21727;SDS011;11026;50.560;17.852;2024-02-26T00:07:02;31.50;;;17.10;;
21727;SDS011;11026;50.560;17.852;2024-02-26T00:09:29;28.95;;;17.13;;
21727;SDS011;11026;50.560;17.852;2024-02-26T00:11:57;24.83;;;16.33;;
21727;SDS011;11026;50.560;17.852;2024-02-26T00:14:24;29.00;;;17.10;;
21727;SDS011;11026;50.560;17.852;2024-02-26T00:16:52;29.02;;;16.52;;
21727;SDS011;11026;50.560;17.852;2024-02-26T00:19:20;27.40;;;16.52;;
21727;SDS011;11026;50.560;17.852;2024-02-26T00:21:47;30.27;;;17.42;;
21727;SDS011;11026;50.560;17.852;2024-02-26T00:24:15;31.65;;;18.00;;
21727;SDS011;11026;50.560;17.852;2024-02-26T00:26:43;28.90;;;17.33;;
21727;SDS011;11026;50.560;17.852;2024-02-26T00:29:10;31.17;;;17.98;;
21727;SDS011;11026;50.560;17.852;2024-02-26T00:31:38;36.35;;;19.08;;
21727;SDS011;11026;50.560;17.852;2024-02-26T00:34:07;34.78;;;17.83;;
21727;SDS011;11026;50.560;17.852;2024-02-26T00:36:35;36.58;;;19.13;;
21727;SDS011;11026;50.560;17.852;2024-02-26T00:39:03;33.03;;;19.23;;
21727;SDS011;11026;50.560;17.852;2024-02-26T00:41:30;33.92;;;19.38;;
21727;SDS011;11026;50.560;17.852;2024-02-26T00:43:57;29.95;;;18.27;;
21727;SDS011;11026;50.560;17.852;2024-02-26T00:46:24;32.10;;;19.13;;
21727;SDS011;11026;50.560;17.852;2024-02-26T00:48:51;29.45;;;17.38;;
21727;SDS011;11026;50.560;17.852;2024-02-26T00:51:18;28.17;;;17.65;;
21727;SDS011;11026;50.560;17.852;2024-02-26T00:53:49;31.92;;;17.60;;
21727;SDS011;11026;50.560;17.852;2024-02-26T00:56:17;27.58;;;17.63;;
21727;SDS011;11026;50.560;17.852;2024-02-26T00:58:44;26.83;;;16.20;;
21727;SDS011;11026;50.560;17.852;2024-02-26T01:01:12;26.60;;;15.35;;
21727;SDS011;11026;50.560;17.852;2024-02-26T01:03:39;24.35;;;15.18;;
21727;SDS011;11026;50.560;17.852;2024-02-26T01:11:09;25.17;;;16.95;;
21727;SDS011;11026;50.560;17.852;2024-02-26T01:13:37;28.27;;;17.08;;
21727;SDS011;11026;50.560;17.852;2024-02-26T01:16:04;27.05;;;18.48;;
21727;SDS011;11026;50.560;17.852;2024-02-26T01:18:32;27.45;;;17.20;;
21727;SDS011;11026;50.560;17.852;2024-02-26T01:21:01;22.30;;;15.02;;
21727;SDS011;11026;50.560;17.852;2024-02-26T01:23:29;25.27;;;15.77;;
21727;SDS011;11026;50.560;17.852;2024-02-26T01:25:57;24.30;;;14.60;;
21727;SDS011;11026;50.560;17.852;2024-02-26T01:28:25;29.65;;;17.55;;
21727;SDS011;11026;50.560;17.852;2024-02-26T01:30:52;29.90;;;19.42;;
21727;SDS011;11026;50.560;17.852;2024-02-26T01:33:19;31.13;;;19.13;;
21727;SDS011;11026;50.560;17.852;2024-02-26T01:35:47;26.63;;;15.65;;
21727;SDS011;11026;50.560;17.852;2024-02-26T01:38:15;32.75;;;18.40;;
21727;SDS011;11026;50.560;17.852;2024-02-26T01:43:11;58.38;;;26.98;;
21727;SDS011;11026;50.560;17.852;2024-02-26T01:45:38;41.03;;;23.75;;
21727;SDS011;11026;50.560;17.852;2024-02-26T01:48:05;37.10;;;22.67;;
21727;SDS011;11026;50.560;17.852;2024-02-26T01:50:34;35.65;;;22.55;;
21727;SDS011;11026;50.560;17.852;2024-02-26T01:55:35;37.55;;;22.70;;
21727;SDS011;11026;50.560;17.852;2024-02-26T01:58:05;36.45;;;22.55;;
21727;SDS011;11026;50.560;17.852;2024-02-26T02:00:32;39.55;;;23.60;;
21727;SDS011;11026;50.560;17.852;2024-02-26T02:03:00;38.97;;;24.73;;
21727;SDS011;11026;50.560;17.852;2024-02-26T02:05:30;44.47;;;26.05;;
21727;SDS011;11026;50.560;17.852;2024-02-26T02:08:00;42.38;;;26.10;;
21727;SDS011;11026;50.560;17.852;2024-02-26T02:10:27;41.78;;;26.48;;
21727;SDS011;11026;50.560;17.852;2024-02-26T02:12:55;44.38;;;27.08;;
21727;SDS011;11026;50.560;17.852;2024-02-26T02:15:24;45.50;;;28.75;;
21727;SDS011;11026;50.560;17.852;2024-02-26T02:17:52;49.38;;;29.23;;
21727;SDS011;11026;50.560;17.852;2024-02-26T02:20:23;50.08;;;29.45;;
21727;SDS011;11026;50.560;17.852;2024-02-26T02:23:03;48.55;;;29.92;;
21727;SDS011;11026;50.560;17.852;2024-02-26T02:25:30;47.65;;;28.63;;
21727;SDS011;11026;50.560;17.852;2024-02-26T02:27:57;48.15;;;29.02;;
21727;SDS011;11026;50.560;17.852;2024-02-26T02:30:28;46.38;;;28.67;;
21727;SDS011;11026;50.560;17.852;2024-02-26T02:32:57;51.10;;;28.73;;
21727;SDS011;11026;50.560;17.852;2024-02-26T02:35:27;47.97;;;28.63;;
21727;SDS011;11026;50.560;17.852;2024-02-26T02:37:57;47.65;;;28.75;;
21727;SDS011;11026;50.560;17.852;2024-02-26T02:40:24;44.00;;;27.85;;
21727;SDS011;11026;50.560;17.852;2024-02-26T02:42:51;44.92;;;27.35;;
21727;SDS011;11026;50.560;17.852;2024-02-26T02:45:18;44.28;;;28.33;;
21727;SDS011;11026;50.560;17.852;2024-02-26T02:47:45;45.53;;;27.90;;
21727;SDS011;11026;50.560;17.852;2024-02-26T02:50:12;43.92;;;29.27;;
21727;SDS011;11026;50.560;17.852;2024-02-26T02:52:40;48.08;;;29.52;;
21727;SDS011;11026;50.560;17.852;2024-02-26T02:55:07;45.10;;;29.58;;
21727;SDS011;11026;50.560;17.852;2024-02-26T02:57:35;50.17;;;29.75;;
21727;SDS011;11026;50.560;17.852;2024-02-26T03:00:08;51.25;;;29.17;;
21727;SDS011;11026;50.560;17.852;2024-02-26T03:02:36;48.33;;;28.85;;
21727;SDS011;11026;50.560;17.852;2024-02-26T03:07:35;48.22;;;29.20;;
21727;SDS011;11026;50.560;17.852;2024-02-26T03:10:02;46.20;;;30.45;;
21727;SDS011;11026;50.560;17.852;2024-02-26T03:12:31;45.03;;;29.88;;
21727;SDS011;11026;50.560;17.852;2024-02-26T03:15:00;45.10;;;29.85;;
21727;SDS011;11026;50.560;17.852;2024-02-26T03:17:29;47.38;;;31.30;;
21727;SDS011;11026;50.560;17.852;2024-02-26T03:19:58;49.08;;;31.23;;
21727;SDS011;11026;50.560;17.852;2024-02-26T03:24:54;55.47;;;32.55;;
21727;SDS011;11026;50.560;17.852;2024-02-26T03:27:23;51.78;;;32.28;;
21727;SDS011;11026;50.560;17.852;2024-02-26T03:29:51;50.72;;;33.15;;
21727;SDS011;11026;50.560;17.852;2024-02-26T03:32:21;52.67;;;34.63;;
21727;SDS011;11026;50.560;17.852;2024-02-26T03:34:48;54.55;;;33.60;;
21727;SDS011;11026;50.560;17.852;2024-02-26T03:39:47;55.42;;;33.55;;
21727;SDS011;11026;50.560;17.852;2024-02-26T03:42:14;53.53;;;34.58;;
21727;SDS011;11026;50.560;17.852;2024-02-26T03:44:43;52.55;;;33.92;;
21727;SDS011;11026;50.560;17.852;2024-02-26T03:47:12;54.63;;;35.28;;
21727;SDS011;11026;50.560;17.852;2024-02-26T03:49:39;50.25;;;32.85;;
21727;SDS011;11026;50.560;17.852;2024-02-26T03:52:06;52.45;;;32.40;;
21727;SDS011;11026;50.560;17.852;2024-02-26T03:54:33;51.53;;;33.63;;
21727;SDS011;11026;50.560;17.852;2024-02-26T03:59:32;47.80;;;32.20;;
21727;SDS011;11026;50.560;17.852;2024-02-26T04:04:34;51.40;;;32.88;;
21727;SDS011;11026;50.560;17.852;2024-02-26T04:07:01;46.72;;;31.40;;
21727;SDS011;11026;50.560;17.852;2024-02-26T04:09:32;50.83;;;32.03;;
21727;SDS011;11026;50.560;17.852;2024-02-26T04:12:00;48.10;;;31.98;;
21727;SDS011;11026;50.560;17.852;2024-02-26T04:14:28;48.03;;;31.60;;
21727;SDS011;11026;50.560;17.852;2024-02-26T04:16:56;52.35;;;32.53;;
21727;SDS011;11026;50.560;17.852;2024-02-26T04:19:24;49.53;;;33.88;;
21727;SDS011;11026;50.560;17.852;2024-02-26T04:21:51;48.15;;;31.83;;
21727;SDS011;11026;50.560;17.852;2024-02-26T04:24:18;47.65;;;31.30;;
21727;SDS011;11026;50.560;17.852;2024-02-26T04:29:16;43.25;;;29.60;;
21727;SDS011;11026;50.560;17.852;2024-02-26T04:31:43;44.22;;;30.85;;
21727;SDS011;11026;50.560;17.852;2024-02-26T04:34:13;43.92;;;29.48;;
21727;SDS011;11026;50.560;17.852;2024-02-26T04:36:40;44.45;;;30.25;;
21727;SDS011;11026;50.560;17.852;2024-02-26T04:39:09;43.88;;;31.90;;
21727;SDS011;11026;50.560;17.852;2024-02-26T04:41:38;44.13;;;30.80;;
21727;SDS011;11026;50.560;17.852;2024-02-26T04:44:05;42.97;;;30.52;;
21727;SDS011;11026;50.560;17.852;2024-02-26T04:46:32;45.22;;;30.17;;
21727;SDS011;11026;50.560;17.852;2024-02-26T04:48:59;42.63;;;29.15;;
21727;SDS011;11026;50.560;17.852;2024-02-26T04:51:27;43.75;;;29.85;;
21727;SDS011;11026;50.560;17.852;2024-02-26T04:53:54;43.90;;;29.67;;
21727;SDS011;11026;50.560;17.852;2024-02-26T04:56:22;44.67;;;29.58;;
21727;SDS011;11026;50.560;17.852;2024-02-26T04:58:49;46.55;;;30.77;;
21727;SDS011;11026;50.560;17.852;2024-02-26T05:03:47;43.83;;;30.83;;
21727;SDS011;11026;50.560;17.852;2024-02-26T05:06:14;51.47;;;32.65;;
21727;SDS011;11026;50.560;17.852;2024-02-26T05:08:41;45.17;;;32.10;;
21727;SDS011;11026;50.560;17.852;2024-02-26T05:11:10;48.78;;;33.30;;
21727;SDS011;11026;50.560;17.852;2024-02-26T05:13:38;47.33;;;32.70;;
21727;SDS011;11026;50.560;17.852;2024-02-26T05:16:07;47.45;;;32.20;;
21727;SDS011;11026;50.560;17.852;2024-02-26T05:18:34;46.28;;;31.27;;
21727;SDS011;11026;50.560;17.852;2024-02-26T05:21:02;38.50;;;28.30;;
21727;SDS011;11026;50.560;17.852;2024-02-26T05:23:30;37.42;;;26.58;;
21727;SDS011;11026;50.560;17.852;2024-02-26T05:25:57;39.67;;;27.45;;
21727;SDS011;11026;50.560;17.852;2024-02-26T05:30:56;39.67;;;26.90;;
21727;SDS011;11026;50.560;17.852;2024-02-26T05:33:24;41.92;;;28.60;;
21727;SDS011;11026;50.560;17.852;2024-02-26T05:35:52;43.00;;;28.90;;
21727;SDS011;11026;50.560;17.852;2024-02-26T05:38:20;46.22;;;31.38;;
21727;SDS011;11026;50.560;17.852;2024-02-26T05:40:49;47.17;;;32.15;;
21727;SDS011;11026;50.560;17.852;2024-02-26T05:43:19;46.05;;;32.60;;
21727;SDS011;11026;50.560;17.852;2024-02-26T05:45:46;50.90;;;34.22;;
21727;SDS011;11026;50.560;17.852;2024-02-26T05:48:14;52.20;;;34.78;;
21727;SDS011;11026;50.560;17.852;2024-02-26T05:50:42;51.60;;;33.13;;
21727;SDS011;11026;50.560;17.852;2024-02-26T05:53:09;50.70;;;33.65;;
21727;SDS011;11026;50.560;17.852;2024-02-26T05:55:37;49.63;;;33.85;;
21727;SDS011;11026;50.560;17.852;2024-02-26T05:58:05;51.83;;;35.38;;
21727;SDS011;11026;50.560;17.852;2024-02-26T06:03:04;55.95;;;37.95;;
21727;SDS011;11026;50.560;17.852;2024-02-26T06:05:31;101.00;;;52.63;;
21727;SDS011;11026;50.560;17.852;2024-02-26T06:07:59;85.05;;;50.85;;
21727;SDS011;11026;50.560;17.852;2024-02-26T06:10:27;57.70;;;39.03;;
21727;SDS011;11026;50.560;17.852;2024-02-26T06:12:54;54.22;;;37.13;;
21727;SDS011;11026;50.560;17.852;2024-02-26T06:15:21;64.60;;;41.35;;
21727;SDS011;11026;50.560;17.852;2024-02-26T06:17:49;60.00;;;39.67;;
21727;SDS011;11026;50.560;17.852;2024-02-26T06:20:17;60.58;;;40.03;;
21727;SDS011;11026;50.560;17.852;2024-02-26T06:22:46;59.45;;;39.08;;
21727;SDS011;11026;50.560;17.852;2024-02-26T06:25:13;58.17;;;38.63;;
21727;SDS011;11026;50.560;17.852;2024-02-26T06:30:11;60.05;;;40.63;;
21727;SDS011;11026;50.560;17.852;2024-02-26T06:32:40;63.20;;;42.15;;
21727;SDS011;11026;50.560;17.852;2024-02-26T06:35:09;64.25;;;41.40;;
21727;SDS011;11026;50.560;17.852;2024-02-26T06:37:38;64.50;;;41.10;;
21727;SDS011;11026;50.560;17.852;2024-02-26T06:40:06;60.05;;;39.33;;
21727;SDS011;11026;50.560;17.852;2024-02-26T06:45:05;58.72;;;38.42;;
21727;SDS011;11026;50.560;17.852;2024-02-26T06:47:34;63.17;;;40.50;;
21727;SDS011;11026;50.560;17.852;2024-02-26T06:50:04;77.47;;;53.67;;
21727;SDS011;11026;50.560;17.852;2024-02-26T06:52:33;62.63;;;42.58;;
21727;SDS011;11026;50.560;17.852;2024-02-26T06:57:32;60.05;;;39.30;;
21727;SDS011;11026;50.560;17.852;2024-02-26T07:00:01;59.75;;;40.88;;
21727;SDS011;11026;50.560;17.852;2024-02-26T07:02:30;62.50;;;40.95;;
21727;SDS011;11026;50.560;17.852;2024-02-26T07:04:59;56.90;;;38.90;;
21727;SDS011;11026;50.560;17.852;2024-02-26T07:07:26;59.85;;;39.08;;
21727;SDS011;11026;50.560;17.852;2024-02-26T07:09:54;56.42;;;38.75;;
21727;SDS011;11026;50.560;17.852;2024-02-26T07:12:22;58.33;;;39.75;;
21727;SDS011;11026;50.560;17.852;2024-02-26T07:14:49;53.05;;;37.45;;
21727;SDS011;11026;50.560;17.852;2024-02-26T07:17:17;50.67;;;35.70;;
21727;SDS011;11026;50.560;17.852;2024-02-26T07:22:13;52.40;;;36.35;;
21727;SDS011;11026;50.560;17.852;2024-02-26T07:24:41;56.70;;;36.63;;
21727;SDS011;11026;50.560;17.852;2024-02-26T07:27:08;53.40;;;37.58;;
21727;SDS011;11026;50.560;17.852;2024-02-26T07:29:36;54.80;;;38.03;;
21727;SDS011;11026;50.560;17.852;2024-02-26T07:32:05;53.08;;;36.90;;
21727;SDS011;11026;50.560;17.852;2024-02-26T07:34:32;54.53;;;37.17;;
21727;SDS011;11026;50.560;17.852;2024-02-26T07:37:00;55.70;;;36.88;;
21727;SDS011;11026;50.560;17.852;2024-02-26T07:39:27;53.95;;;36.83;;
21727;SDS011;11026;50.560;17.852;2024-02-26T07:41:54;50.90;;;34.83;;
21727;SDS011;11026;50.560;17.852;2024-02-26T07:44:22;52.80;;;35.80;;
21727;SDS011;11026;50.560;17.852;2024-02-26T07:46:50;51.13;;;35.13;;
21727;SDS011;11026;50.560;17.852;2024-02-26T07:49:17;47.08;;;33.67;;
21727;SDS011;11026;50.560;17.852;2024-02-26T07:51:44;55.25;;;37.10;;
21727;SDS011;11026;50.560;17.852;2024-02-26T07:54:11;55.95;;;35.10;;
21727;SDS011;11026;50.560;17.852;2024-02-26T07:56:38;50.92;;;34.92;;
21727;SDS011;11026;50.560;17.852;2024-02-26T07:59:07;48.35;;;33.08;;
21727;SDS011;11026;50.560;17.852;2024-02-26T08:01:38;55.63;;;36.13;;
21727;SDS011;11026;50.560;17.852;2024-02-26T08:04:06;53.42;;;35.78;;
21727;SDS011;11026;50.560;17.852;2024-02-26T08:06:33;49.53;;;33.33;;
21727;SDS011;11026;50.560;17.852;2024-02-26T08:09:04;47.65;;;31.45;;
21727;SDS011;11026;50.560;17.852;2024-02-26T08:11:31;46.42;;;30.00;;
21727;SDS011;11026;50.560;17.852;2024-02-26T08:13:59;43.08;;;26.75;;
21727;SDS011;11026;50.560;17.852;2024-02-26T08:16:26;31.35;;;21.20;;
21727;SDS011;11026;50.560;17.852;2024-02-26T08:18:53;35.80;;;23.48;;
21727;SDS011;11026;50.560;17.852;2024-02-26T08:21:21;32.00;;;23.05;;
21727;SDS011;11026;50.560;17.852;2024-02-26T08:23:49;36.28;;;21.88;;
21727;SDS011;11026;50.560;17.852;2024-02-26T08:26:16;29.00;;;18.90;;
21727;SDS011;11026;50.560;17.852;2024-02-26T08:28:43;26.17;;;17.13;;
21727;SDS011;11026;50.560;17.852;2024-02-26T08:36:11;20.42;;;12.88;;
21727;SDS011;11026;50.560;17.852;2024-02-26T08:38:38;22.27;;;13.25;;
21727;SDS011;11026;50.560;17.852;2024-02-26T08:41:07;18.83;;;12.05;;
21727;SDS011;11026;50.560;17.852;2024-02-26T08:48:39;18.08;;;10.48;;
21727;SDS011;11026;50.560;17.852;2024-02-26T08:51:07;23.02;;;10.05;;
21727;SDS011;11026;50.560;17.852;2024-02-26T08:53:36;15.82;;;10.23;;
21727;SDS011;11026;50.560;17.852;2024-02-26T08:58:44;17.02;;;10.63;;
21727;SDS011;11026;50.560;17.852;2024-02-26T09:01:14;17.75;;;10.85;;
21727;SDS011;11026;50.560;17.852;2024-02-26T09:03:42;22.48;;;12.57;;
21727;SDS011;11026;50.560;17.852;2024-02-26T09:06:10;19.30;;;11.13;;
21727;SDS011;11026;50.560;17.852;2024-02-26T09:08:39;16.08;;;9.07;;
21727;SDS011;11026;50.560;17.852;2024-02-26T09:11:06;11.52;;;8.30;;
21727;SDS011;11026;50.560;17.852;2024-02-26T09:13:34;14.68;;;8.25;;
21727;SDS011;11026;50.560;17.852;2024-02-26T09:16:02;11.73;;;6.32;;
21727;SDS011;11026;50.560;17.852;2024-02-26T09:18:29;11.40;;;6.63;;
21727;SDS011;11026;50.560;17.852;2024-02-26T09:20:56;10.18;;;7.20;;
21727;SDS011;11026;50.560;17.852;2024-02-26T09:23:24;10.65;;;7.00;;
21727;SDS011;11026;50.560;17.852;2024-02-26T09:25:51;10.70;;;6.65;;
21727;SDS011;11026;50.560;17.852;2024-02-26T09:28:19;8.63;;;6.55;;
21727;SDS011;11026;50.560;17.852;2024-02-26T09:30:46;9.32;;;6.45;;
21727;SDS011;11026;50.560;17.852;2024-02-26T09:33:15;6.68;;;5.32;;
21727;SDS011;11026;50.560;17.852;2024-02-26T09:35:42;8.77;;;5.93;;
21727;SDS011;11026;50.560;17.852;2024-02-26T09:38:09;7.45;;;5.30;;
21727;SDS011;11026;50.560;17.852;2024-02-26T09:40:39;6.47;;;5.22;;
21727;SDS011;11026;50.560;17.852;2024-02-26T09:43:06;6.93;;;5.38;;
21727;SDS011;11026;50.560;17.852;2024-02-26T09:45:38;7.20;;;4.85;;
21727;SDS011;11026;50.560;17.852;2024-02-26T09:48:07;6.15;;;4.30;;
21727;SDS011;11026;50.560;17.852;2024-02-26T09:50:37;5.65;;;4.10;;
21727;SDS011;11026;50.560;17.852;2024-02-26T09:53:04;5.88;;;4.07;;
21727;SDS011;11026;50.560;17.852;2024-02-26T09:55:35;6.10;;;4.32;;
21727;SDS011;11026;50.560;17.852;2024-02-26T09:58:03;7.70;;;4.22;;
21727;SDS011;11026;50.560;17.852;2024-02-26T10:00:36;4.80;;;3.47;;
21727;SDS011;11026;50.560;17.852;2024-02-26T10:03:06;5.88;;;3.63;;
21727;SDS011;11026;50.560;17.852;2024-02-26T10:05:40;6.80;;;4.13;;
21727;SDS011;11026;50.560;17.852;2024-02-26T10:10:53;5.22;;;3.47;;
21727;SDS011;11026;50.560;17.852;2024-02-26T10:13:21;5.47;;;3.80;;
21727;SDS011;11026;50.560;17.852;2024-02-26T10:15:49;5.32;;;4.20;;
21727;SDS011;11026;50.560;17.852;2024-02-26T10:18:16;8.15;;;4.10;;
21727;SDS011;11026;50.560;17.852;2024-02-26T10:20:58;4.88;;;3.20;;
21727;SDS011;11026;50.560;17.852;2024-02-26T10:23:28;4.60;;;3.67;;
21727;SDS011;11026;50.560;17.852;2024-02-26T10:30:56;5.03;;;3.70;;
21727;SDS011;11026;50.560;17.852;2024-02-26T10:33:23;6.82;;;3.72;;
21727;SDS011;11026;50.560;17.852;2024-02-26T10:35:51;5.43;;;3.50;;
21727;SDS011;11026;50.560;17.852;2024-02-26T10:40:50;4.35;;;3.42;;
21727;SDS011;11026;50.560;17.852;2024-02-26T10:43:17;3.55;;;3.20;;
21727;SDS011;11026;50.560;17.852;2024-02-26T10:45:45;4.35;;;3.17;;
21727;SDS011;11026;50.560;17.852;2024-02-26T10:48:13;5.97;;;3.70;;
21727;SDS011;11026;50.560;17.852;2024-02-26T10:50:41;4.85;;;3.30;;
21727;SDS011;11026;50.560;17.852;2024-02-26T10:53:17;32.38;;;22.83;;
21727;SDS011;11026;50.560;17.852;2024-02-26T10:55:58;8.02;;;4.82;;
21727;SDS011;11026;50.560;17.852;2024-02-26T10:58:31;19.60;;;17.42;;
21727;SDS011;11026;50.560;17.852;2024-02-26T11:01:00;71.45;;;64.15;;
21727;SDS011;11026;50.560;17.852;2024-02-26T11:03:30;6.35;;;3.80;;
21727;SDS011;11026;50.560;17.852;2024-02-26T11:06:03;5.72;;;4.00;;
21727;SDS011;11026;50.560;17.852;2024-02-26T11:08:32;148.68;;;99.70;;
21727;SDS011;11026;50.560;17.852;2024-02-26T11:11:01;11.35;;;9.20;;
21727;SDS011;11026;50.560;17.852;2024-02-26T11:13:29;8.80;;;5.05;;
21727;SDS011;11026;50.560;17.852;2024-02-26T11:16:01;52.00;;;34.55;;
21727;SDS011;11026;50.560;17.852;2024-02-26T11:18:29;8.15;;;5.80;;
21727;SDS011;11026;50.560;17.852;2024-02-26T11:20:58;7.93;;;4.00;;
21727;SDS011;11026;50.560;17.852;2024-02-26T11:23:26;9.45;;;4.75;;
21727;SDS011;11026;50.560;17.852;2024-02-26T11:25:54;6.90;;;4.15;;
21727;SDS011;11026;50.560;17.852;2024-02-26T11:28:26;8.40;;;5.72;;
21727;SDS011;11026;50.560;17.852;2024-02-26T11:30:55;4.32;;;3.30;;
21727;SDS011;11026;50.560;17.852;2024-02-26T11:33:27;5.47;;;2.97;;
21727;SDS011;11026;50.560;17.852;2024-02-26T11:35:55;8.90;;;4.93;;
21727;SDS011;11026;50.560;17.852;2024-02-26T11:38:23;12.40;;;7.07;;
21727;SDS011;11026;50.560;17.852;2024-02-26T11:40:53;5.80;;;3.20;;
21727;SDS011;11026;50.560;17.852;2024-02-26T11:46:27;5.28;;;2.83;;
21727;SDS011;11026;50.560;17.852;2024-02-26T11:48:58;4.38;;;3.00;;
21727;SDS011;11026;50.560;17.852;2024-02-26T11:51:28;4.85;;;2.80;;
21727;SDS011;11026;50.560;17.852;2024-02-26T11:54:00;11.10;;;5.25;;
21727;SDS011;11026;50.560;17.852;2024-02-26T11:56:27;7.63;;;5.35;;
21727;SDS011;11026;50.560;17.852;2024-02-26T11:59:09;12.20;;;5.90;;
21727;SDS011;11026;50.560;17.852;2024-02-26T12:01:43;6.65;;;3.15;;
21727;SDS011;11026;50.560;17.852;2024-02-26T12:04:16;13.68;;;8.65;;
21727;SDS011;11026;50.560;17.852;2024-02-26T12:09:33;9.02;;;5.40;;
21727;SDS011;11026;50.560;17.852;2024-02-26T12:12:09;15.70;;;8.25;;
21727;SDS011;11026;50.560;17.852;2024-02-26T12:14:56;3.88;;;3.35;;
21727;SDS011;11026;50.560;17.852;2024-02-26T12:17:24;5.13;;;3.33;;
21727;SDS011;11026;50.560;17.852;2024-02-26T12:19:52;6.70;;;3.55;;
21727;SDS011;11026;50.560;17.852;2024-02-26T12:22:21;4.45;;;3.60;;
21727;SDS011;11026;50.560;17.852;2024-02-26T12:24:58;6.45;;;3.50;;
21727;SDS011;11026;50.560;17.852;2024-02-26T12:27:27;6.43;;;4.03;;
21727;SDS011;11026;50.560;17.852;2024-02-26T12:29:54;4.95;;;3.50;;
21727;SDS011;11026;50.560;17.852;2024-02-26T12:32:21;5.50;;;3.90;;
21727;SDS011;11026;50.560;17.852;2024-02-26T12:34:50;5.07;;;3.45;;
21727;SDS011;11026;50.560;17.852;2024-02-26T12:37:17;4.85;;;3.50;;
21727;SDS011;11026;50.560;17.852;2024-02-26T12:39:45;6.55;;;4.32;;
21727;SDS011;11026;50.560;17.852;2024-02-26T12:42:12;7.53;;;4.57;;
21727;SDS011;11026;50.560;17.852;2024-02-26T12:44:41;6.18;;;4.00;;
21727;SDS011;11026;50.560;17.852;2024-02-26T12:47:08;6.65;;;4.00;;
21727;SDS011;11026;50.560;17.852;2024-02-26T12:49:37;4.47;;;3.70;;
21727;SDS011;11026;50.560;17.852;2024-02-26T12:52:04;4.40;;;3.33;;
21727;SDS011;11026;50.560;17.852;2024-02-26T12:54:31;4.85;;;3.97;;
21727;SDS011;11026;50.560;17.852;2024-02-26T12:57:02;4.57;;;3.25;;
21727;SDS011;11026;50.560;17.852;2024-02-26T12:59:32;5.30;;;3.55;;
21727;SDS011;11026;50.560;17.852;2024-02-26T13:02:01;6.05;;;3.67;;
21727;SDS011;11026;50.560;17.852;2024-02-26T13:04:33;6.00;;;3.70;;
21727;SDS011;11026;50.560;17.852;2024-02-26T13:07:03;6.60;;;3.78;;
21727;SDS011;11026;50.560;17.852;2024-02-26T13:09:33;5.28;;;3.08;;
21727;SDS011;11026;50.560;17.852;2024-02-26T13:12:04;3.58;;;2.42;;
21727;SDS011;11026;50.560;17.852;2024-02-26T13:14:33;6.30;;;3.00;;
21727;SDS011;11026;50.560;17.852;2024-02-26T13:17:01;6.32;;;3.35;;
21727;SDS011;11026;50.560;17.852;2024-02-26T13:19:29;4.38;;;3.03;;
21727;SDS011;11026;50.560;17.852;2024-02-26T13:22:03;3.17;;;2.63;;
21727;SDS011;11026;50.560;17.852;2024-02-26T13:27:04;4.47;;;2.88;;
21727;SDS011;11026;50.560;17.852;2024-02-26T13:29:34;4.63;;;2.97;;
21727;SDS011;11026;50.560;17.852;2024-02-26T13:32:01;4.55;;;2.17;;
21727;SDS011;11026;50.560;17.852;2024-02-26T13:34:29;3.75;;;2.90;;
21727;SDS011;11026;50.560;17.852;2024-02-26T13:37:00;6.78;;;3.70;;
21727;SDS011;11026;50.560;17.852;2024-02-26T13:39:29;6.07;;;3.08;;
21727;SDS011;11026;50.560;17.852;2024-02-26T13:41:57;4.15;;;2.60;;
21727;SDS011;11026;50.560;17.852;2024-02-26T13:44:26;5.18;;;3.15;;
21727;SDS011;11026;50.560;17.852;2024-02-26T13:46:54;3.72;;;2.83;;
21727;SDS011;11026;50.560;17.852;2024-02-26T13:49:20;2.83;;;2.50;;
21727;SDS011;11026;50.560;17.852;2024-02-26T13:51:50;2.83;;;2.25;;
21727;SDS011;11026;50.560;17.852;2024-02-26T13:54:19;5.72;;;3.15;;
21727;SDS011;11026;50.560;17.852;2024-02-26T13:56:46;3.70;;;2.40;;
21727;SDS011;11026;50.560;17.852;2024-02-26T13:59:14;4.25;;;2.90;;
21727;SDS011;11026;50.560;17.852;2024-02-26T14:01:42;3.65;;;2.88;;
21727;SDS011;11026;50.560;17.852;2024-02-26T14:04:11;2.63;;;2.38;;
21727;SDS011;11026;50.560;17.852;2024-02-26T14:06:39;4.30;;;2.40;;
21727;SDS011;11026;50.560;17.852;2024-02-26T14:09:06;3.72;;;2.40;;
21727;SDS011;11026;50.560;17.852;2024-02-26T14:11:33;4.68;;;2.85;;
21727;SDS011;11026;50.560;17.852;2024-02-26T14:14:01;4.05;;;2.65;;
21727;SDS011;11026;50.560;17.852;2024-02-26T14:16:29;3.65;;;2.78;;
21727;SDS011;11026;50.560;17.852;2024-02-26T14:18:59;5.32;;;2.92;;
21727;SDS011;11026;50.560;17.852;2024-02-26T14:21:26;5.28;;;3.83;;
21727;SDS011;11026;50.560;17.852;2024-02-26T14:23:56;4.82;;;3.42;;
21727;SDS011;11026;50.560;17.852;2024-02-26T14:26:23;4.45;;;2.78;;
21727;SDS011;11026;50.560;17.852;2024-02-26T14:28:50;5.13;;;3.38;;
21727;SDS011;11026;50.560;17.852;2024-02-26T14:31:20;5.22;;;3.38;;
21727;SDS011;11026;50.560;17.852;2024-02-26T14:33:50;4.03;;;2.63;;
21727;SDS011;11026;50.560;17.852;2024-02-26T14:36:20;4.70;;;3.20;;
21727;SDS011;11026;50.560;17.852;2024-02-26T14:38:48;5.72;;;3.03;;
21727;SDS011;11026;50.560;17.852;2024-02-26T14:41:15;6.30;;;3.00;;
21727;SDS011;11026;50.560;17.852;2024-02-26T14:43:42;4.07;;;2.45;;
21727;SDS011;11026;50.560;17.852;2024-02-26T14:46:13;3.53;;;2.80;;
21727;SDS011;11026;50.560;17.852;2024-02-26T14:48:40;4.75;;;3.42;;
21727;SDS011;11026;50.560;17.852;2024-02-26T14:51:08;5.20;;;3.17;;
21727;SDS011;11026;50.560;17.852;2024-02-26T14:53:35;5.30;;;3.30;;
21727;SDS011;11026;50.560;17.852;2024-02-26T14:56:03;4.72;;;2.85;;
21727;SDS011;11026;50.560;17.852;2024-02-26T15:01:04;9.65;;;5.13;;
21727;SDS011;11026;50.560;17.852;2024-02-26T15:03:32;5.65;;;3.53;;
21727;SDS011;11026;50.560;17.852;2024-02-26T15:06:00;4.93;;;3.13;;
21727;SDS011;11026;50.560;17.852;2024-02-26T15:08:28;5.90;;;3.00;;
21727;SDS011;11026;50.560;17.852;2024-02-26T15:10:56;5.00;;;2.80;;
21727;SDS011;11026;50.560;17.852;2024-02-26T15:13:23;4.47;;;2.85;;
21727;SDS011;11026;50.560;17.852;2024-02-26T15:15:52;5.97;;;3.83;;
21727;SDS011;11026;50.560;17.852;2024-02-26T15:18:20;7.78;;;4.10;;
21727;SDS011;11026;50.560;17.852;2024-02-26T15:20:47;7.00;;;4.55;;
21727;SDS011;11026;50.560;17.852;2024-02-26T15:23:14;7.55;;;4.75;;
21727;SDS011;11026;50.560;17.852;2024-02-26T15:25:41;6.55;;;4.50;;
21727;SDS011;11026;50.560;17.852;2024-02-26T15:28:08;10.82;;;5.57;;
21727;SDS011;11026;50.560;17.852;2024-02-26T15:30:43;8.98;;;4.70;;
21727;SDS011;11026;50.560;17.852;2024-02-26T15:33:10;7.97;;;5.13;;
21727;SDS011;11026;50.560;17.852;2024-02-26T15:38:13;10.02;;;5.55;;
21727;SDS011;11026;50.560;17.852;2024-02-26T15:40:40;6.30;;;4.80;;
21727;SDS011;11026;50.560;17.852;2024-02-26T15:43:08;6.45;;;4.00;;
21727;SDS011;11026;50.560;17.852;2024-02-26T15:45:38;8.05;;;4.13;;